createdAt,value
2023-01-25T00:00:11.282Z,60.23
2023-01-25T00:02:59.582Z,60.03
2023-01-25T00:05:32.199Z,59.09
2023-01-25T00:08:00.435Z,58.89
2023-01-25T00:10:51.861Z,59.50
2023-01-25T00:13:20.264Z,59.83
2023-01-25T00:15:48.246Z,60.62
2023-01-25T00:18:34.995Z,60.71
2023-01-25T00:21:32.312Z,61.99
2023-01-25T00:24:06.135Z,63.73
2023-01-25T00:26:35.355Z,63.98
2023-01-25T00:29:04.294Z,63.42
2023-01-25T00:31:35.316Z,63.27
2023-01-25T00:34:25.445Z,62.89
2023-01-25T00:37:01.636Z,62.19
2023-01-25T00:39:29.985Z,61.55
2023-01-25T00:41:58.075Z,61.70
2023-01-25T00:44:26.624Z,61.94
2023-01-25T00:46:54.825Z,61.69
2023-01-25T00:49:25.396Z,59.04
2023-01-25T00:51:56.169Z,58.13
2023-01-25T00:54:24.419Z,58.55
2023-01-25T00:56:54.484Z,59.19
2023-01-25T00:59:24.362Z,59.64
2023-01-25T01:01:54.346Z,60.75
2023-01-25T01:04:25.919Z,62.24
2023-01-25T01:06:54.483Z,64.26
2023-01-25T01:09:23.841Z,64.31
2023-01-25T01:11:54.102Z,62.46
2023-01-25T01:14:23.547Z,61.94
2023-01-25T01:16:51.807Z,61.66
2023-01-25T01:19:20.502Z,59.81
2023-01-25T01:21:48.778Z,57.23
2023-01-25T01:24:18.104Z,56.97
2023-01-25T01:26:46.405Z,57.87
2023-01-25T01:29:16.682Z,59.30
2023-01-25T01:31:45.031Z,59.80
2023-01-25T01:34:36.081Z,60.49
2023-01-25T01:37:04.398Z,62.16
2023-01-25T01:39:32.454Z,64.01
2023-01-25T01:42:01.078Z,64.23
2023-01-25T01:44:46.816Z,64.11
2023-01-25T01:47:29.386Z,62.91
2023-01-25T01:50:17.110Z,61.42
2023-01-25T01:52:45.896Z,60.70
2023-01-25T01:55:19.492Z,58.87
2023-01-25T01:57:52.087Z,58.04
2023-01-25T02:00:28.292Z,58.13
2023-01-25T02:02:58.084Z,59.61
2023-01-25T02:06:02.937Z,60.10
2023-01-25T02:08:37.001Z,60.56
2023-01-25T02:11:05.405Z,61.39
2023-01-25T02:13:35.897Z,62.83
2023-01-25T02:16:05.168Z,63.95
2023-01-25T02:18:33.500Z,63.64
2023-01-25T02:21:02.420Z,62.40
2023-01-25T02:23:54.575Z,61.59
2023-01-25T02:26:23.571Z,61.54
2023-01-25T02:29:02.382Z,60.13
2023-01-25T02:31:34.825Z,58.70
2023-01-25T02:34:03.602Z,59.07
2023-01-25T02:36:34.202Z,59.47
2023-01-25T02:39:24.337Z,61.22
2023-01-25T02:42:11.389Z,61.85
2023-01-25T02:44:41.223Z,63.29
2023-01-25T02:47:09.620Z,64.43
2023-01-25T02:49:38.505Z,63.07
2023-01-25T02:52:09.647Z,62.66
2023-01-25T02:54:38.021Z,62.41
2023-01-25T02:57:08.143Z,60.60
2023-01-25T02:59:43.317Z,58.58
2023-01-25T03:02:11.863Z,58.80
2023-01-25T03:04:40.139Z,59.51
2023-01-25T03:07:09.352Z,60.40
2023-01-25T03:09:37.522Z,61.47
2023-01-25T03:12:06.406Z,63.40
2023-01-25T03:14:39.735Z,64.17
2023-01-25T03:17:11.028Z,64.54
2023-01-25T03:19:39.144Z,64.36
2023-01-25T03:22:07.489Z,63.42
2023-01-25T03:24:36.190Z,61.72
2023-01-25T03:27:11.118Z,60.36
2023-01-25T03:29:45.960Z,60.31
2023-01-25T03:32:17.683Z,58.97
2023-01-25T03:34:46.046Z,57.97
2023-01-25T03:37:15.203Z,59.01
2023-01-25T03:39:44.008Z,60.39
2023-01-25T03:42:12.224Z,60.96
2023-01-25T03:44:41.049Z,62.29
2023-01-25T03:47:09.365Z,64.01
2023-01-25T03:49:37.785Z,64.16
2023-01-25T03:52:10.183Z,63.74
2023-01-25T03:54:40.132Z,62.39
2023-01-25T03:57:09.488Z,60.61
2023-01-25T03:59:51.066Z,59.20
2023-01-25T04:02:19.312Z,58.01
2023-01-25T04:04:47.471Z,58.46
2023-01-25T04:07:40.574Z,58.43
2023-01-25T04:10:10.416Z,59.72
2023-01-25T04:12:41.505Z,61.09
2023-01-25T04:15:10.948Z,62.96
2023-01-25T04:17:59.911Z,64.43
2023-01-25T04:20:29.649Z,64.19
2023-01-25T04:22:58.216Z,63.87
2023-01-25T04:25:31.180Z,63.03
2023-01-25T04:27:59.578Z,63.02
2023-01-25T04:30:27.683Z,62.43
2023-01-25T04:32:56.758Z,62.60
2023-01-25T04:35:28.068Z,62.12
2023-01-25T04:37:58.753Z,61.68
2023-01-25T04:40:51.432Z,60.45
2023-01-25T04:43:21.046Z,59.72
2023-01-25T04:45:50.483Z,58.87
2023-01-25T04:48:23.665Z,58.17
2023-01-25T04:50:56.734Z,58.74
2023-01-25T04:53:44.664Z,60.03
2023-01-25T04:56:13.258Z,62.08
2023-01-25T04:59:07.822Z,63.98
2023-01-25T05:01:36.336Z,65.28
2023-01-25T05:04:06.667Z,64.88
2023-01-25T05:06:39.631Z,64.00
2023-01-25T05:09:09.694Z,63.46
2023-01-25T05:11:38.248Z,62.37
2023-01-25T05:14:14.503Z,61.14
2023-01-25T05:16:47.610Z,61.02
2023-01-25T05:19:35.539Z,59.94
2023-01-25T05:22:25.397Z,59.28
2023-01-25T05:24:54.537Z,60.15
2023-01-25T05:27:23.423Z,60.80
2023-01-25T05:29:55.016Z,62.35
2023-01-25T05:33:01.951Z,64.73
2023-01-25T05:35:30.523Z,64.13
2023-01-25T05:37:59.665Z,63.28
2023-01-25T05:40:28.131Z,63.38
2023-01-25T05:43:00.092Z,61.30
2023-01-25T05:45:30.567Z,61.07
2023-01-25T05:47:59.573Z,61.07
2023-01-25T05:50:28.115Z,61.11
2023-01-25T05:53:02.438Z,60.60
2023-01-25T05:55:31.065Z,58.33
2023-01-25T05:58:07.729Z,57.95
2023-01-25T06:00:35.909Z,58.34
2023-01-25T06:03:04.437Z,59.81
2023-01-25T06:05:35.932Z,60.98
2023-01-25T06:08:04.327Z,62.33
2023-01-25T06:10:51.413Z,64.05
2023-01-25T06:13:22.382Z,64.28
2023-01-25T06:15:57.738Z,63.40
2023-01-25T06:18:49.315Z,62.26
2023-01-25T06:21:42.124Z,61.95
2023-01-25T06:24:10.872Z,60.32
2023-01-25T06:26:39.088Z,59.15
2023-01-25T06:29:07.215Z,58.92
2023-01-25T06:31:58.576Z,59.96
2023-01-25T06:34:46.401Z,60.41
2023-01-25T06:37:23.167Z,60.79
2023-01-25T06:40:11.215Z,62.82
2023-01-25T06:42:44.396Z,64.58
2023-01-25T06:45:17.094Z,64.26
2023-01-25T06:47:46.968Z,63.96
2023-01-25T06:50:15.461Z,63.10
2023-01-25T06:52:43.503Z,62.44
2023-01-25T06:55:14.171Z,61.71
2023-01-25T06:57:49.804Z,61.34
2023-01-25T07:00:18.833Z,62.01
2023-01-25T07:03:05.891Z,61.61
2023-01-25T07:05:34.388Z,60.25
2023-01-25T07:08:22.788Z,60.21
2023-01-25T07:10:58.887Z,60.34
2023-01-25T07:13:28.619Z,59.85
2023-01-25T07:15:59.721Z,58.80
2023-01-25T07:18:47.185Z,57.81
2023-01-25T07:21:18.809Z,58.45
2023-01-25T07:23:47.466Z,59.00
2023-01-25T07:26:24.744Z,59.75
2023-01-25T07:28:53.770Z,60.27
2023-01-25T07:31:22.801Z,61.78
2023-01-25T07:33:53.315Z,64.18
2023-01-25T07:36:22.401Z,63.95
2023-01-25T07:38:57.011Z,62.89
2023-01-25T07:41:26.085Z,62.03
2023-01-25T07:43:54.712Z,62.31
2023-01-25T07:46:39.795Z,62.30
2023-01-25T07:49:07.900Z,62.15
2023-01-25T07:51:36.005Z,61.76
2023-01-25T07:54:23.240Z,61.81
2023-01-25T07:56:51.307Z,61.45
2023-01-25T07:59:19.340Z,61.30
2023-01-25T08:01:47.668Z,60.58
2023-01-25T08:04:15.689Z,60.62
2023-01-25T08:06:46.483Z,60.86
2023-01-25T08:09:22.492Z,60.83
2023-01-25T08:11:50.706Z,60.44
2023-01-25T08:14:18.770Z,58.86
2023-01-25T08:16:47.077Z,57.76
2023-01-25T08:19:33.716Z,58.11
2023-01-25T08:22:02.258Z,59.46
2023-01-25T08:24:30.660Z,60.63
2023-01-25T08:27:01.043Z,62.74
2023-01-25T08:29:29.731Z,63.73
2023-01-25T08:31:57.887Z,62.88
2023-01-25T08:34:25.976Z,63.07
2023-01-25T08:36:54.154Z,62.62
2023-01-25T08:39:22.418Z,60.85
2023-01-25T08:41:50.477Z,61.45
2023-01-25T08:44:24.315Z,60.82
2023-01-25T08:46:57.469Z,60.47
2023-01-25T08:49:27.520Z,59.04
2023-01-25T08:51:55.657Z,57.35
2023-01-25T08:54:24.830Z,57.61
2023-01-25T08:56:53.282Z,58.57
2023-01-25T08:59:44.841Z,59.42
2023-01-25T09:02:13.992Z,59.87
2023-01-25T09:04:42.215Z,60.52
2023-01-25T09:07:11.006Z,62.70
2023-01-25T09:09:44.602Z,63.64
2023-01-25T09:12:12.768Z,63.36
2023-01-25T09:14:40.788Z,62.76
2023-01-25T09:17:10.205Z,62.51
2023-01-25T09:19:38.465Z,62.07
2023-01-25T09:22:06.563Z,60.58
2023-01-25T09:24:36.993Z,59.24
2023-01-25T09:27:30.747Z,59.13
2023-01-25T09:30:16.614Z,60.04
2023-01-25T09:32:50.858Z,60.16
2023-01-25T09:35:19.347Z,60.64
2023-01-25T09:37:51.053Z,62.16
2023-01-25T09:40:22.549Z,63.75
2023-01-25T09:43:27.103Z,62.86
2023-01-25T09:46:26.572Z,61.82
2023-01-25T09:49:26.995Z,61.11
2023-01-25T09:52:27.376Z,60.77
2023-01-25T09:54:55.464Z,60.74
2023-01-25T09:57:26.523Z,59.56
2023-01-25T09:59:55.395Z,58.01
2023-01-25T10:02:34.931Z,58.04
2023-01-25T10:05:31.287Z,59.17
2023-01-25T10:08:16.340Z,60.55
2023-01-25T10:10:47.301Z,61.64
2023-01-25T10:13:19.427Z,62.95
2023-01-25T10:15:56.000Z,63.57
2023-01-25T10:18:33.684Z,62.94
2023-01-25T10:21:13.337Z,62.33
2023-01-25T10:23:56.555Z,61.96
2023-01-25T10:26:33.344Z,60.93
2023-01-25T10:29:04.988Z,59.06
2023-01-25T10:31:50.790Z,57.57
2023-01-25T10:34:31.486Z,57.56
2023-01-25T10:37:11.846Z,57.98
2023-01-25T10:39:57.520Z,59.34
2023-01-25T10:42:29.882Z,60.83
2023-01-25T10:44:57.833Z,60.56
2023-01-25T10:47:37.399Z,62.42
2023-01-25T10:50:06.035Z,62.79
2023-01-25T10:52:37.802Z,62.19
2023-01-25T10:55:17.815Z,61.58
2023-01-25T10:57:53.581Z,61.14
2023-01-25T11:00:30.681Z,59.55
2023-01-25T11:02:59.156Z,57.49
2023-01-25T11:05:35.800Z,59.36
2023-01-25T11:08:25.784Z,59.22
2023-01-25T11:10:55.683Z,59.34
2023-01-25T11:13:29.813Z,60.62
2023-01-25T11:16:01.922Z,60.08
2023-01-25T11:18:33.964Z,61.03
2023-01-25T11:21:06.722Z,60.31
2023-01-25T11:23:34.986Z,60.24
2023-01-25T11:26:15.722Z,61.38
2023-01-25T11:28:45.662Z,61.31
2023-01-25T11:31:20.434Z,60.73
2023-01-25T11:33:49.002Z,60.24
2023-01-25T11:36:22.640Z,60.45
2023-01-25T11:39:07.124Z,60.94
2023-01-25T11:42:12.601Z,60.40
2023-01-25T11:45:09.131Z,61.01
2023-01-25T11:47:53.056Z,60.37
2023-01-25T11:50:39.283Z,60.78
2023-01-25T11:53:29.247Z,60.04
2023-01-25T11:56:26.061Z,60.04
2023-01-25T11:59:37.811Z,60.04
2023-01-25T12:03:03.691Z,59.29
2023-01-25T12:05:57.090Z,59.86
2023-01-25T12:08:34.959Z,59.00
2023-01-25T12:11:12.177Z,58.69
2023-01-25T12:14:08.168Z,58.62
2023-01-25T12:17:01.952Z,59.08
2023-01-25T12:19:57.662Z,58.66
2023-01-25T12:22:45.511Z,58.09
2023-01-25T12:25:22.776Z,57.68
2023-01-25T12:28:19.698Z,57.23
2023-01-25T12:31:20.196Z,57.42
2023-01-25T12:34:03.584Z,57.57
2023-01-25T12:36:38.409Z,57.45
2023-01-25T12:39:12.726Z,57.03
2023-01-25T12:42:00.301Z,56.88
2023-01-25T12:44:37.479Z,56.38
2023-01-25T12:47:22.475Z,55.50
2023-01-25T12:50:15.192Z,55.32
2023-01-25T12:53:15.504Z,55.58
2023-01-25T12:55:44.762Z,55.74
2023-01-25T12:58:16.412Z,54.37
2023-01-25T13:00:55.581Z,55.01
2023-01-25T13:03:41.590Z,55.02
2023-01-25T13:06:25.253Z,54.52
2023-01-25T13:08:56.403Z,54.89
2023-01-25T13:11:32.345Z,53.80
2023-01-25T13:14:31.385Z,53.99
2023-01-25T13:17:28.003Z,54.46
2023-01-25T13:19:56.263Z,54.49
2023-01-25T13:23:09.894Z,53.93
2023-01-25T13:25:51.885Z,55.02
2023-01-25T13:28:41.157Z,54.77
2023-01-25T13:31:09.674Z,55.42
2023-01-25T13:33:37.980Z,53.65
2023-01-25T13:36:37.520Z,54.07
2023-01-25T13:39:24.545Z,52.92
2023-01-25T13:42:03.558Z,52.80
2023-01-25T13:44:34.525Z,50.10
2023-01-25T13:47:05.843Z,48.03
2023-01-25T13:49:42.964Z,47.97
2023-01-25T13:52:19.675Z,46.28
2023-01-25T13:54:49.474Z,44.56
2023-01-25T13:57:21.540Z,44.64
2023-01-25T14:00:14.954Z,46.12
2023-01-25T14:02:47.313Z,44.18
2023-01-25T14:05:25.766Z,43.45
2023-01-25T14:07:57.385Z,43.02
2023-01-25T14:10:28.001Z,43.06
2023-01-25T14:13:00.719Z,43.21
2023-01-25T14:15:31.118Z,43.62
2023-01-25T14:18:19.272Z,43.35
2023-01-25T14:20:50.671Z,43.72
2023-01-25T14:23:30.244Z,44.25
2023-01-25T14:25:59.327Z,44.88
2023-01-25T14:28:29.392Z,45.46
2023-01-25T14:31:01.579Z,46.04
2023-01-25T14:33:33.017Z,46.33
2023-01-25T14:36:24.378Z,46.76
2023-01-25T14:38:54.757Z,47.13
2023-01-25T14:41:36.320Z,47.63
2023-01-25T14:44:10.680Z,48.01
2023-01-25T14:46:40.560Z,48.61
2023-01-25T14:49:26.301Z,49.24
2023-01-25T14:52:02.482Z,49.94
2023-01-25T14:54:33.111Z,50.50
2023-01-25T14:57:04.388Z,51.01
2023-01-25T14:59:37.181Z,51.44
2023-01-25T15:02:46.113Z,51.87
2023-01-25T15:05:17.561Z,52.08
2023-01-25T15:07:51.357Z,52.78
2023-01-25T15:10:24.189Z,53.21
2023-01-25T15:13:15.715Z,53.70
2023-01-25T15:15:59.194Z,53.88
2023-01-25T15:19:00.005Z,54.37
2023-01-25T15:21:30.725Z,54.72
2023-01-25T15:24:06.932Z,55.39
2023-01-25T15:26:36.339Z,55.72
2023-01-25T15:29:20.729Z,56.16
2023-01-25T15:31:50.955Z,56.51
2023-01-25T15:34:25.332Z,56.94
2023-01-25T15:36:53.461Z,57.24
2023-01-25T15:39:21.889Z,57.41
2023-01-25T15:41:49.993Z,57.96
2023-01-25T15:44:20.372Z,58.30
2023-01-25T15:46:51.597Z,58.57
2023-01-25T15:49:28.043Z,58.61
2023-01-25T15:51:56.979Z,59.08
2023-01-25T15:54:25.220Z,59.48
2023-01-25T15:56:57.609Z,59.70
2023-01-25T15:59:27.125Z,59.78
2023-01-25T16:01:55.334Z,58.97
2023-01-25T16:04:25.319Z,59.94
2023-01-25T16:06:55.024Z,60.26
2023-01-25T16:09:27.265Z,60.55
2023-01-25T16:27:41.055Z,61.40
2023-01-25T16:30:18.616Z,61.72
2023-01-25T16:32:46.947Z,63.46
2023-01-25T16:35:15.086Z,65.72
2023-01-25T16:37:43.346Z,65.48
2023-01-25T16:40:23.194Z,64.44
2023-01-25T16:42:51.757Z,63.90
2023-01-25T16:45:19.941Z,62.56
2023-01-25T16:47:48.304Z,61.48
2023-01-25T16:50:20.023Z,59.47
2023-01-25T16:52:51.366Z,57.30
2023-01-25T16:55:19.592Z,56.67
2023-01-25T16:57:51.241Z,56.64
2023-01-25T17:00:20.152Z,56.97
2023-01-25T17:02:58.789Z,57.44
2023-01-25T17:05:32.747Z,57.75
2023-01-25T17:08:01.182Z,58.20
2023-01-25T17:10:34.832Z,58.89
2023-01-25T17:13:03.442Z,59.22
2023-01-25T17:15:33.720Z,59.73
2023-01-25T17:18:02.253Z,60.22
2023-01-25T17:20:30.399Z,60.64
2023-01-25T17:22:58.494Z,61.04
2023-01-25T17:25:26.807Z,61.50
2023-01-25T17:27:54.908Z,62.96
2023-01-25T17:30:23.052Z,65.15
2023-01-25T17:32:51.195Z,65.13
2023-01-25T17:35:19.447Z,64.28
2023-01-25T17:37:47.569Z,63.61
2023-01-25T17:40:15.956Z,62.86
2023-01-25T17:42:44.475Z,62.00
2023-01-25T17:45:12.734Z,61.25
2023-01-25T17:47:41.016Z,59.76
2023-01-25T17:50:10.283Z,57.96
2023-01-25T17:52:39.011Z,57.58
2023-01-25T17:55:07.628Z,57.87
2023-01-25T17:57:37.313Z,58.26
2023-01-25T18:00:06.619Z,58.77
2023-01-25T18:02:45.433Z,59.19
2023-01-25T18:05:15.751Z,59.73
2023-01-25T18:07:45.293Z,60.19
2023-01-25T18:10:13.989Z,60.71
2023-01-25T18:12:43.733Z,61.17
2023-01-25T18:15:12.446Z,61.49
2023-01-25T18:17:40.747Z,63.13
2023-01-25T18:20:10.732Z,65.20
2023-01-25T18:22:39.067Z,65.21
2023-01-25T18:25:28.428Z,64.07
2023-01-25T18:27:56.731Z,61.87
2023-01-25T18:30:44.430Z,62.08
2023-01-25T18:33:12.562Z,62.80
2023-01-25T18:35:43.394Z,61.74
2023-01-25T18:38:13.077Z,60.70
2023-01-25T18:40:43.827Z,59.13
2023-01-25T18:43:13.797Z,57.25
2023-01-25T18:45:42.834Z,56.81
2023-01-25T18:48:13.564Z,57.22
2023-01-25T18:50:42.752Z,57.84
2023-01-25T18:53:11.105Z,58.82
2023-01-25T18:55:39.468Z,59.46
2023-01-25T18:58:07.737Z,59.99
2023-01-25T19:00:36.343Z,60.34
2023-01-25T19:03:04.618Z,60.93
2023-01-25T19:05:32.882Z,61.24
2023-01-25T19:08:00.989Z,62.01
2023-01-25T19:10:29.053Z,63.36
2023-01-25T19:12:57.501Z,65.09
2023-01-25T19:15:25.678Z,64.15
2023-01-25T19:17:53.732Z,62.15
2023-01-25T19:20:22.093Z,63.20
2023-01-25T19:22:53.859Z,61.63
2023-01-25T19:25:23.003Z,62.18
2023-01-25T19:27:51.613Z,61.73
2023-01-25T19:30:19.915Z,60.24
2023-01-25T19:32:48.307Z,59.99
2023-01-25T19:35:16.401Z,60.52
2023-01-25T19:37:44.639Z,59.03
2023-01-25T19:40:13.643Z,58.32
2023-01-25T19:42:41.885Z,58.22
2023-01-25T19:45:10.814Z,58.75
2023-01-25T19:47:39.272Z,59.78
2023-01-25T19:50:08.249Z,60.23
2023-01-25T19:52:36.581Z,60.79
2023-01-25T19:55:05.436Z,61.26
2023-01-25T19:57:38.331Z,62.62
2023-01-25T20:00:07.168Z,64.18
2023-01-25T20:02:36.761Z,63.89
2023-01-25T20:05:05.254Z,63.02
2023-01-25T20:07:33.895Z,60.34
2023-01-25T20:10:02.105Z,61.29
2023-01-25T20:12:30.212Z,60.26
2023-01-25T20:14:58.700Z,61.06
2023-01-25T20:17:26.855Z,61.23
2023-01-25T20:19:54.886Z,61.00
2023-01-25T20:22:23.312Z,61.02
2023-01-25T20:24:51.430Z,61.21
2023-01-25T20:27:19.620Z,59.10
2023-01-25T20:29:49.291Z,57.99
2023-01-25T20:32:31.982Z,58.18
2023-01-25T20:35:03.734Z,59.21
2023-01-25T20:37:32.173Z,60.24
2023-01-25T20:40:00.248Z,61.06
2023-01-25T20:42:28.438Z,62.38
2023-01-25T20:44:57.008Z,64.21
2023-01-25T20:47:25.130Z,62.85
2023-01-25T20:49:53.261Z,63.44
2023-01-25T20:52:21.689Z,63.59
2023-01-25T20:54:49.966Z,62.77
2023-01-25T20:57:18.115Z,62.11
2023-01-25T20:59:46.458Z,61.60
2023-01-25T21:02:14.801Z,61.41
2023-01-25T21:04:43.198Z,58.48
2023-01-25T21:07:11.642Z,57.54
2023-01-25T21:09:42.094Z,57.68
2023-01-25T21:12:11.300Z,58.33
2023-01-25T21:14:39.445Z,58.78
2023-01-25T21:17:10.311Z,59.36
2023-01-25T21:19:38.492Z,59.95
2023-01-25T21:22:06.720Z,60.35
2023-01-25T21:24:35.264Z,61.20
2023-01-25T21:27:03.453Z,62.62
2023-01-25T21:29:31.776Z,64.66
2023-01-25T21:32:00.125Z,64.56
2023-01-25T21:34:31.023Z,64.48
2023-01-25T21:36:59.738Z,61.42
2023-01-25T21:39:27.848Z,59.73
2023-01-25T21:41:55.962Z,59.55
2023-01-25T21:44:43.253Z,60.24
2023-01-25T21:50:18.073Z,61.20
2023-01-25T21:52:46.102Z,63.40
2023-01-25T21:55:14.496Z,63.80
2023-01-25T21:57:47.254Z,63.41
2023-01-25T22:00:18.784Z,63.57
2023-01-25T22:02:46.914Z,61.49
2023-01-25T22:05:15.071Z,61.77
2023-01-25T22:07:43.312Z,61.16
2023-01-25T22:10:11.722Z,61.99
2023-01-25T22:12:40.276Z,61.73
2023-01-25T22:15:08.552Z,61.55
2023-01-25T22:17:36.819Z,61.49
2023-01-25T22:20:05.211Z,60.94
2023-01-25T22:22:33.258Z,60.51
2023-01-25T22:25:01.297Z,59.87
2023-01-25T22:27:37.570Z,59.10
2023-01-25T22:30:06.676Z,58.02
2023-01-25T22:32:34.995Z,57.98
2023-01-25T22:35:03.344Z,58.81
2023-01-25T22:37:34.846Z,59.35
2023-01-25T22:40:02.956Z,60.83
2023-01-25T22:42:31.037Z,62.48
2023-01-25T22:44:59.063Z,62.90
2023-01-25T22:47:27.106Z,62.40
2023-01-25T22:49:55.148Z,62.76
2023-01-25T22:52:23.538Z,62.66
2023-01-25T22:54:51.948Z,62.41
2023-01-25T22:57:20.048Z,62.71
2023-01-25T22:59:48.218Z,61.72
2023-01-25T23:02:16.297Z,61.45
2023-01-25T23:04:44.380Z,61.28
2023-01-25T23:07:12.984Z,60.80
2023-01-25T23:09:41.117Z,60.60
2023-01-25T23:12:09.195Z,60.11
2023-01-25T23:14:52.967Z,59.22
2023-01-25T23:17:42.469Z,59.08
2023-01-25T23:20:12.694Z,60.47
2023-01-25T23:22:41.691Z,60.52
2023-01-25T23:25:11.526Z,61.27
2023-01-25T23:27:39.687Z,62.62
2023-01-25T23:30:10.258Z,64.69
2023-01-25T23:32:38.866Z,64.45
2023-01-25T23:35:07.427Z,63.84
2023-01-25T23:37:35.473Z,62.65
2023-01-25T23:40:04.102Z,61.93
2023-01-25T23:42:32.485Z,61.28
2023-01-25T23:45:00.551Z,61.53
2023-01-25T23:47:31.263Z,61.92
2023-01-25T23:49:59.606Z,62.20
2023-01-25T23:52:27.774Z,62.07
2023-01-25T23:54:55.849Z,62.16
2023-01-25T23:57:24.344Z,61.41
2023-01-25T23:59:52.746Z,60.19
